Time;durP1;ratioP1;P1;durP2;ratioP2;P2;SDS_P1;SDS_P2;PMS_P1;PMS_P2;Temp;Humidity;BMP_temperature;BMP_pressure;BME280_temperature;BME280_humidity;BME280_pressure;Samples;Min_cycle;Max_cycle;Signal;HPM_P1;HPM_P2
2021/03/22 00:00:48;;;;;;;2.70;1.10;;;;;;;;;;5015122;28;20076;-77
2021/03/22 00:03:13;;;;;;;3.00;1.35;;;;;;;;;;5007677;28;20104;-76
2021/03/22 00:05:39;;;;;;;2.40;1.10;;;;;;;;;;4995473;28;20487;-76
2021/03/22 00:08:05;;;;;;;2.33;1.20;;;;;;;;;;4995547;28;20026;-76
2021/03/22 00:10:30;;;;;;;2.22;1.20;;;;;;;;;;4995480;28;20030;-76
2021/03/22 00:12:56;;;;;;;2.20;1.20;;;;;;;;;;4995469;28;20497;-76
2021/03/22 00:15:22;;;;;;;2.73;1.23;;;;;;;;;;4996388;28;20034;-76
2021/03/22 00:17:47;;;;;;;2.17;1.20;;;;;;;;;;4991112;28;20124;-77
2021/03/22 00:20:13;;;;;;;2.23;1.10;;;;;;;;;;5005285;28;20038;-77
2021/03/22 00:22:38;;;;;;;4.47;1.03;;;;;;;;;;4996566;28;20033;-76
2021/03/22 00:25:04;;;;;;;2.30;1.10;;;;;;;;;;4998467;28;20279;-76
2021/03/22 00:27:30;;;;;;;3.28;1.23;;;;;;;;;;5019867;28;20025;-77
2021/03/22 00:29:55;;;;;;;2.87;1.30;;;;;;;;;;4959625;28;20057;-77
2021/03/22 00:32:20;;;;;;;2.10;1.07;;;;;;;;;;4991868;28;20100;-77
2021/03/22 00:34:46;;;;;;;3.63;1.20;;;;;;;;;;4977213;28;20113;-76
2021/03/22 00:37:11;;;;;;;2.27;1.10;;;;;;;;;;5016058;28;20115;-76
2021/03/22 00:39:36;;;;;;;2.20;1.13;;;;;;;;;;5020802;28;20073;-76
2021/03/22 00:42:02;;;;;;;1.67;0.90;;;;;;;;;;5016174;28;20433;-77
2021/03/22 00:44:27;;;;;;;2.80;1.27;;;;;;;;;;4982277;28;20030;-76
2021/03/22 00:46:54;;;;;;;2.53;1.10;;;;;;;;;;4966118;28;20406;-76
2021/03/22 00:49:19;;;;;;;3.25;1.20;;;;;;;;;;4996325;28;20120;-77
2021/03/22 00:51:44;;;;;;;2.27;1.13;;;;;;;;;;4998156;28;20048;-77
2021/03/22 00:54:10;;;;;;;2.83;1.13;;;;;;;;;;4966055;28;20069;-76
2021/03/22 00:56:35;;;;;;;2.27;1.00;;;;;;;;;;4998235;28;20057;-76
2021/03/22 00:59:00;;;;;;;3.30;1.13;;;;;;;;;;4998262;28;20065;-76
2021/03/22 01:01:26;;;;;;;1.83;0.90;;;;;;;;;;5016161;28;20045;-77
2021/03/22 01:03:51;;;;;;;2.63;1.20;;;;;;;;;;5012948;28;20026;-77
2021/03/22 01:06:17;;;;;;;3.00;1.40;;;;;;;;;;4981968;28;20046;-76
2021/03/22 01:08:43;;;;;;;2.50;1.20;;;;;;;;;;4981888;28;20216;-76
2021/03/22 01:11:13;;;;;;;1.98;0.95;;;;;;;;;;4998063;28;20080;-77
2021/03/22 01:13:44;;;;;;;2.67;1.30;;;;;;;;;;4998331;28;20040;-76
2021/03/22 01:16:10;;;;;;;2.00;1.10;;;;;;;;;;4966198;28;20370;-77
2021/03/22 01:18:43;;;;;;;2.40;1.10;;;;;;;;;;4997670;28;20117;-76
2021/03/22 01:21:19;;;;;;;3.67;1.30;;;;;;;;;;4981559;28;20364;-76
2021/03/22 01:23:44;;;;;;;2.78;1.13;;;;;;;;;;4997942;28;20072;-76
2021/03/22 01:26:10;;;;;;;3.70;1.20;;;;;;;;;;5000461;28;20053;-76
2021/03/22 01:28:37;;;;;;;1.95;1.00;;;;;;;;;;5017378;28;20048;-77
2021/03/22 01:31:02;;;;;;;2.40;1.10;;;;;;;;;;5017175;28;20493;-76
2021/03/22 01:33:32;;;;;;;3.23;1.20;;;;;;;;;;5018113;28;20136;-76
2021/03/22 01:35:59;;;;;;;2.15;1.00;;;;;;;;;;4982785;28;20389;-76
2021/03/22 01:38:25;;;;;;;2.33;1.10;;;;;;;;;;4987669;28;20045;-76
2021/03/22 01:41:00;;;;;;;2.23;1.30;;;;;;;;;;5016405;28;20493;-76
2021/03/22 01:43:37;;;;;;;2.08;1.05;;;;;;;;;;5033581;28;20029;-76
2021/03/22 01:46:02;;;;;;;;;;;;;;;;;;5034178;28;20029;-76
2021/03/22 01:48:28;;;;;;;2.03;1.10;;;;;;;;;;5016857;28;19977;-76
2021/03/22 01:50:53;;;;;;;2.30;1.00;;;;;;;;;;5017102;28;20105;-76
2021/03/22 01:53:18;;;;;;;2.60;1.13;;;;;;;;;;5002561;28;20041;-76
2021/03/22 01:55:44;;;;;;;3.60;1.30;;;;;;;;;;4980482;28;20128;-76
2021/03/22 01:58:09;;;;;;;2.17;1.10;;;;;;;;;;5032999;28;20032;-77
2021/03/22 02:00:38;;;;;;;2.87;1.20;;;;;;;;;;5013624;28;20042;-76
2021/03/22 02:03:06;;;;;;;4.20;1.35;;;;;;;;;;4964773;28;20038;-77
2021/03/22 02:05:31;;;;;;;3.67;1.20;;;;;;;;;;5014540;28;20503;-76
2021/03/22 02:08:06;;;;;;;2.90;1.23;;;;;;;;;;4964956;28;20030;-77
2021/03/22 02:10:32;;;;;;;2.00;1.00;;;;;;;;;;5016546;28;20492;-76
2021/03/22 02:12:57;;;;;;;2.13;1.00;;;;;;;;;;4992331;28;20030;-76
2021/03/22 02:15:23;;;;;;;2.83;1.20;;;;;;;;;;4997044;28;20061;-76
2021/03/22 02:18:00;;;;;;;2.87;1.10;;;;;;;;;;4980533;28;20117;-76
2021/03/22 02:20:47;;;;;;;2.50;1.10;;;;;;;;;;4996729;28;20041;-76
2021/03/22 02:23:23;;;;;;;2.17;1.00;;;;;;;;;;5012901;28;20046;-76
2021/03/22 02:25:55;;;;;;;2.30;1.05;;;;;;;;;;4996517;28;20041;-76
2021/03/22 02:28:40;;;;;;;3.17;1.30;;;;;;;;;;4977917;28;20030;-76
2021/03/22 02:31:18;;;;;;;1.75;0.85;;;;;;;;;;4976939;28;20034;-76
2021/03/22 02:34:07;;;;;;;2.50;1.10;;;;;;;;;;4993356;28;20034;-76
2021/03/22 02:37:05;;;;;;;3.35;1.27;;;;;;;;;;4988181;28;20044;-76
2021/03/22 02:40:14;;;;;;;2.55;1.08;;;;;;;;;;4929157;28;20397;-76
2021/03/22 02:42:41;;;;;;;1.98;1.00;;;;;;;;;;4908888;29;20084;-76
2021/03/22 02:45:07;;;;;;;2.88;1.20;;;;;;;;;;4968312;28;20042;-77
2021/03/22 02:47:35;;;;;;;2.90;1.13;;;;;;;;;;4960917;28;20042;-76
2021/03/22 02:50:01;;;;;;;3.22;1.02;;;;;;;;;;4978116;28;20183;-76
2021/03/22 02:52:26;;;;;;;;;;;;;;;;;;5016215;28;20056;-76
2021/03/22 02:55:18;;;;;;;2.60;1.03;;;;;;;;;;5023567;28;19935;-76
2021/03/22 02:58:07;;;;;;;2.35;0.88;;;;;;;;;;4974673;28;20045;-76
2021/03/22 03:00:37;;;;;;;3.17;1.10;;;;;;;;;;4982424;28;20091;-76
2021/03/22 03:03:06;;;;;;;2.00;1.08;;;;;;;;;;5030037;28;20068;-76
2021/03/22 03:05:31;;;;;;;2.80;1.00;;;;;;;;;;4996222;28;20049;-77
2021/03/22 03:08:09;;;;;;;2.33;1.07;;;;;;;;;;4980098;28;20401;-76
2021/03/22 03:10:34;;;;;;;2.60;1.02;;;;;;;;;;4980394;28;20030;-77
2021/03/22 03:12:59;;;;;;;2.77;0.97;;;;;;;;;;4963561;28;20400;-76
2021/03/22 03:15:25;;;;;;;2.27;1.10;;;;;;;;;;4984509;28;20053;-76
2021/03/22 03:17:51;;;;;;;2.60;1.00;;;;;;;;;;5015136;28;20523;-76
2021/03/22 03:20:19;;;;;;;3.38;1.08;;;;;;;;;;5028288;28;20042;-76
2021/03/22 03:22:44;;;;;;;3.35;1.10;;;;;;;;;;4980205;28;20496;-76
2021/03/22 03:25:11;;;;;;;3.13;1.13;;;;;;;;;;4979503;28;20037;-76
2021/03/22 03:27:37;;;;;;;3.08;1.00;;;;;;;;;;4979507;28;20038;-76
2021/03/22 03:30:30;;;;;;;2.63;1.05;;;;;;;;;;4990410;28;20036;-76
2021/03/22 03:32:56;;;;;;;3.00;1.00;;;;;;;;;;5013826;28;20052;-76
2021/03/22 03:35:23;;;;;;;2.43;1.07;;;;;;;;;;4990877;28;20029;-77
2021/03/22 03:37:48;;;;;;;2.63;0.88;;;;;;;;;;5015365;28;20215;-76
2021/03/22 03:40:20;;;;;;;3.30;1.30;;;;;;;;;;5015313;28;20033;-76
2021/03/22 03:42:45;;;;;;;2.67;1.02;;;;;;;;;;5013518;28;20098;-76
2021/03/22 03:45:12;;;;;;;2.83;1.13;;;;;;;;;;5013488;28;20552;-76
2021/03/22 03:47:38;;;;;;;3.05;1.00;;;;;;;;;;4979418;28;20176;-77
2021/03/22 03:50:06;;;;;;;2.35;1.05;;;;;;;;;;4995562;28;20403;-76
2021/03/22 03:52:32;;;;;;;2.53;1.00;;;;;;;;;;5031732;28;20037;-76
2021/03/22 03:54:57;;;;;;;2.60;1.00;;;;;;;;;;5031227;28;20076;-76
2021/03/22 03:57:22;;;;;;;2.47;1.07;;;;;;;;;;5023700;28;20084;-78
2021/03/22 03:59:48;;;;;;;2.27;0.93;;;;;;;;;;5013958;28;20500;-77
2021/03/22 04:04:47;;;;;;;2.22;1.17;;;;;;;;;;4989151;28;20050;-76
2021/03/22 04:07:13;;;;;;;1.93;0.80;;;;;;;;;;5002592;28;20064;-76
2021/03/22 04:09:38;;;;;;;2.30;0.83;;;;;;;;;;5021939;28;20065;-76
2021/03/22 04:12:04;;;;;;;3.47;1.17;;;;;;;;;;5004564;28;20081;-76
2021/03/22 04:14:29;;;;;;;2.50;1.23;;;;;;;;;;4979480;28;20030;-76
2021/03/22 04:16:54;;;;;;;2.80;1.10;;;;;;;;;;4979328;28;20081;-76
2021/03/22 04:19:20;;;;;;;2.67;1.20;;;;;;;;;;4973582;28;20065;-76
2021/03/22 04:21:46;;;;;;;2.60;1.10;;;;;;;;;;4976204;28;20034;-76
2021/03/22 04:24:11;;;;;;;3.42;1.30;;;;;;;;;;4959872;28;20035;-76
2021/03/22 04:26:36;;;;;;;2.40;1.00;;;;;;;;;;4959573;28;20133;-76
2021/03/22 04:29:02;;;;;;;2.57;1.07;;;;;;;;;;4975978;28;20035;-76
2021/03/22 04:31:28;;;;;;;2.27;1.10;;;;;;;;;;4959955;28;20109;-76
2021/03/22 04:33:53;;;;;;;2.67;1.30;;;;;;;;;;4976496;28;20393;-76
2021/03/22 04:36:21;;;;;;;2.83;1.13;;;;;;;;;;4978113;28;20046;-76
2021/03/22 04:38:46;;;;;;;2.28;1.00;;;;;;;;;;4979212;28;20046;-76
2021/03/22 04:41:11;;;;;;;2.13;1.13;;;;;;;;;;4996390;28;20092;-76
2021/03/22 04:43:37;;;;;;;2.50;1.03;;;;;;;;;;4995543;28;20069;-76
2021/03/22 04:46:02;;;;;;;2.97;1.13;;;;;;;;;;4995366;28;20062;-76
2021/03/22 04:48:27;;;;;;;2.30;1.00;;;;;;;;;;4978886;28;20030;-76
2021/03/22 04:50:53;;;;;;;1.77;0.90;;;;;;;;;;4994571;28;20069;-76
2021/03/22 04:53:18;;;;;;;1.87;1.10;;;;;;;;;;4978606;28;20121;-76
2021/03/22 04:55:43;;;;;;;2.53;1.10;;;;;;;;;;4978779;28;20512;-76
2021/03/22 04:58:09;;;;;;;2.30;0.90;;;;;;;;;;4995244;28;20117;-76
2021/03/22 05:00:40;;;;;;;1.90;1.00;;;;;;;;;;4994778;28;20520;-76
2021/03/22 05:03:10;;;;;;;2.65;0.90;;;;;;;;;;4962942;28;20062;-76
2021/03/22 05:05:36;;;;;;;2.17;1.13;;;;;;;;;;4978914;28;20113;-76
2021/03/22 05:08:02;;;;;;;3.43;1.10;;;;;;;;;;4978769;28;20468;-76
2021/03/22 05:10:30;;;;;;;2.65;1.00;;;;;;;;;;4977694;28;20273;-76
2021/03/22 05:12:55;;;;;;;2.58;1.20;;;;;;;;;;4978317;28;20030;-76
2021/03/22 05:15:21;;;;;;;3.30;1.20;;;;;;;;;;4994796;28;20084;-75
2021/03/22 05:17:46;;;;;;;3.17;1.00;;;;;;;;;;4994617;28;20042;-75
2021/03/22 05:20:21;;;;;;;2.60;1.10;;;;;;;;;;4994192;28;20069;-76
2021/03/22 05:22:46;;;;;;;2.70;0.98;;;;;;;;;;4962962;28;20117;-76
2021/03/22 05:25:12;;;;;;;2.47;1.00;;;;;;;;;;4978190;28;20129;-76
2021/03/22 05:27:37;;;;;;;3.03;1.20;;;;;;;;;;4961952;28;20031;-76
2021/03/22 05:30:07;;;;;;;2.67;1.23;;;;;;;;;;4954379;28;20066;-76
2021/03/22 05:32:34;;;;;;;2.65;1.00;;;;;;;;;;4959003;28;20043;-76
2021/03/22 05:34:59;;;;;;;;;;;;;;;;;;4991540;28;20088;-76
2021/03/22 05:37:25;;;;;;;3.20;1.00;;;;;;;;;;4995436;28;19917;-76
2021/03/22 05:39:50;;;;;;;3.17;0.93;;;;;;;;;;4961972;28;20038;-76
2021/03/22 05:42:34;;;;;;;2.67;0.97;;;;;;;;;;4977573;28;20759;-76
2021/03/22 05:45:24;;;;;;;2.25;0.90;;;;;;;;;;4991925;28;20952;-76
2021/03/22 05:48:15;;;;;;;2.13;0.95;;;;;;;;;;4966351;28;20041;-76
2021/03/22 05:50:52;;;;;;;2.33;0.90;;;;;;;;;;4994247;28;20477;-76
2021/03/22 05:53:34;;;;;;;1.77;0.82;;;;;;;;;;4979348;28;20030;-76
2021/03/22 05:55:59;;;;;;;2.72;1.05;;;;;;;;;;4993225;28;20030;-76
2021/03/22 05:59:02;;;;;;;2.40;1.10;;;;;;;;;;4969957;28;20070;-75
2021/03/22 06:01:54;;;;;;;1.83;0.90;;;;;;;;;;4975526;28;20030;-75
2021/03/22 06:04:30;;;;;;;1.98;0.90;;;;;;;;;;4937309;29;20532;-75
2021/03/22 06:06:56;;;;;;;3.17;1.10;;;;;;;;;;4992208;28;20440;-75
2021/03/22 06:09:27;;;;;;;2.33;1.10;;;;;;;;;;4963782;28;20121;-75
2021/03/22 06:12:06;;;;;;;3.38;0.90;;;;;;;;;;4973889;28;20182;-75
2021/03/22 06:15:01;;;;;;;2.47;1.00;;;;;;;;;;4974063;28;20030;-75
2021/03/22 06:17:30;;;;;;;2.33;1.08;;;;;;;;;;4975477;28;20035;-76
2021/03/22 06:19:58;;;;;;;3.15;1.17;;;;;;;;;;4974105;28;20347;-76
2021/03/22 06:22:25;;;;;;;3.22;1.02;;;;;;;;;;4989184;28;20026;-76
2021/03/22 06:24:51;;;;;;;2.28;1.00;;;;;;;;;;4974389;28;20054;-75
2021/03/22 06:27:17;;;;;;;2.15;0.90;;;;;;;;;;4973876;28;20478;-76
2021/03/22 06:29:43;;;;;;;1.80;0.90;;;;;;;;;;4973918;28;20062;-76
2021/03/22 06:32:20;;;;;;;1.73;0.95;;;;;;;;;;4973540;28;20045;-76
2021/03/22 06:34:55;;;;;;;;;;;;;;;;;;4958138;28;20557;-76
2021/03/22 06:37:30;;;;;;;2.25;0.85;;;;;;;;;;4974916;28;20307;-76
2021/03/22 06:40:12;;;;;;;2.72;1.10;;;;;;;;;;4974855;28;20065;-76
2021/03/22 06:42:38;;;;;;;3.13;1.10;;;;;;;;;;4973704;28;20035;-76
2021/03/22 06:45:04;;;;;;;2.23;1.07;;;;;;;;;;4957633;28;20034;-76
2021/03/22 06:47:31;;;;;;;2.13;0.95;;;;;;;;;;4973692;28;20510;-76
2021/03/22 06:50:22;;;;;;;2.45;1.00;;;;;;;;;;4973606;28;20490;-76
2021/03/22 06:52:49;;;;;;;2.67;1.10;;;;;;;;;;4973605;28;20490;-76
2021/03/22 06:55:44;;;;;;;2.03;0.90;;;;;;;;;;4973449;28;20390;-76
2021/03/22 06:58:25;;;;;;;2.05;0.90;;;;;;;;;;4969223;28;20490;-76
2021/03/22 07:00:50;;;;;;;2.22;0.90;;;;;;;;;;4957358;28;20460;-76
2021/03/22 07:03:24;;;;;;;2.23;0.90;;;;;;;;;;4973446;28;20502;-76
2021/03/22 07:05:49;;;;;;;2.28;0.82;;;;;;;;;;4973566;28;20035;-76
2021/03/22 07:08:19;;;;;;;1.90;1.00;;;;;;;;;;4973388;28;20115;-76
2021/03/22 07:11:03;;;;;;;3.35;0.90;;;;;;;;;;4973402;28;20031;-76
2021/03/22 07:13:31;;;;;;;2.50;1.00;;;;;;;;;;4957222;28;20039;-76
2021/03/22 07:16:15;;;;;;;2.90;1.13;;;;;;;;;;4973156;28;20497;-76
2021/03/22 07:18:41;;;;;;;2.05;0.80;;;;;;;;;;4973109;28;20133;-76
2021/03/22 07:21:14;;;;;;;3.47;1.00;;;;;;;;;;4973118;28;20118;-76
2021/03/22 07:23:43;;;;;;;4.03;1.00;;;;;;;;;;4973306;28;20553;-76
2021/03/22 07:26:21;;;;;;;2.53;1.00;;;;;;;;;;4974333;28;20379;-76
2021/03/22 07:29:23;;;;;;;3.22;1.05;;;;;;;;;;4972914;28;20406;-76
2021/03/22 07:32:13;;;;;;;1.77;0.80;;;;;;;;;;4963442;28;20035;-76
2021/03/22 07:35:11;;;;;;;2.67;0.95;;;;;;;;;;4973021;28;20090;-76
2021/03/22 07:37:42;;;;;;;2.47;1.10;;;;;;;;;;4971917;28;20035;-76
2021/03/22 07:40:26;;;;;;;2.40;0.90;;;;;;;;;;4957006;28;20292;-76
2021/03/22 07:43:04;;;;;;;2.80;1.10;;;;;;;;;;4972495;28;20074;-76
2021/03/22 07:45:47;;;;;;;2.67;0.90;;;;;;;;;;4975878;28;20520;-76
2021/03/22 07:48:34;;;;;;;5.30;1.00;;;;;;;;;;4977155;28;20035;-75
2021/03/22 07:51:10;;;;;;;2.70;1.10;;;;;;;;;;4976828;28;20059;-76
2021/03/22 07:53:56;;;;;;;2.83;0.98;;;;;;;;;;4976871;28;20035;-75
2021/03/22 07:56:24;;;;;;;2.80;0.93;;;;;;;;;;4976948;28;20516;-75
2021/03/22 07:59:08;;;;;;;3.00;0.90;;;;;;;;;;4977905;28;20114;-75
2021/03/22 08:02:24;;;;;;;3.05;1.00;;;;;;;;;;4977863;28;20058;-75
2021/03/22 08:05:07;;;;;;;1.52;0.90;;;;;;;;;;4955798;28;20119;-75
2021/03/22 08:07:51;;;;;;;2.20;1.00;;;;;;;;;;4962499;28;20030;-76
2021/03/22 08:10:28;;;;;;;2.50;0.90;;;;;;;;;;4977673;28;20391;-77
2021/03/22 08:13:02;;;;;;;2.78;0.88;;;;;;;;;;4987462;28;20030;-76
2021/03/22 08:15:48;;;;;;;2.88;0.90;;;;;;;;;;4967680;28;20117;-75
2021/03/22 08:18:19;;;;;;;3.55;1.00;;;;;;;;;;4977998;28;20196;-76
2021/03/22 08:21:12;;;;;;;1.80;0.80;;;;;;;;;;4987953;28;20031;-76
2021/03/22 08:23:57;;;;;;;2.75;1.02;;;;;;;;;;4980997;28;20105;-75
2021/03/22 08:26:37;;;;;;;2.72;1.00;;;;;;;;;;4979439;28;20093;-76
2021/03/22 08:29:06;;;;;;;1.92;1.00;;;;;;;;;;4995219;28;20034;-76
2021/03/22 08:31:49;;;;;;;3.20;1.05;;;;;;;;;;4963306;28;20044;-76
2021/03/22 08:34:30;;;;;;;3.10;0.82;;;;;;;;;;4964223;28;20425;-76
2021/03/22 08:37:07;;;;;;;2.80;0.95;;;;;;;;;;4978864;28;20038;-76
2021/03/22 08:39:59;;;;;;;2.88;0.90;;;;;;;;;;4995828;28;20049;-77
2021/03/22 08:42:27;;;;;;;1.98;0.88;;;;;;;;;;4993596;28;20508;-77
2021/03/22 08:45:02;;;;;;;2.30;0.82;;;;;;;;;;4979023;28;20050;-76
2021/03/22 08:47:51;;;;;;;1.98;0.73;;;;;;;;;;4963935;28;20117;-76
2021/03/22 08:50:19;;;;;;;2.72;0.90;;;;;;;;;;4995244;28;20070;-76
2021/03/22 08:52:55;;;;;;;2.17;0.82;;;;;;;;;;4968087;28;20039;-76
2021/03/22 08:55:22;;;;;;;2.85;1.05;;;;;;;;;;4974588;28;20037;-76
2021/03/22 08:58:19;;;;;;;2.63;1.08;;;;;;;;;;4960277;28;20616;-76
2021/03/22 09:00:45;;;;;;;2.55;0.90;;;;;;;;;;4993689;28;20379;-76
2021/03/22 09:03:18;;;;;;;2.35;0.85;;;;;;;;;;4979020;28;20057;-76
2021/03/22 09:06:09;;;;;;;3.05;1.00;;;;;;;;;;4995912;28;20036;-75
2021/03/22 09:08:36;;;;;;;1.90;0.90;;;;;;;;;;4994688;28;20034;-76
2021/03/22 09:11:27;;;;;;;2.25;0.80;;;;;;;;;;4978632;28;20093;-76
2021/03/22 09:13:58;;;;;;;2.08;0.88;;;;;;;;;;4995063;28;20034;-77
2021/03/22 09:16:23;;;;;;;1.88;0.80;;;;;;;;;;4978732;28;20042;-76
2021/03/22 09:19:10;;;;;;;2.30;0.93;;;;;;;;;;4993897;28;20407;-76
2021/03/22 09:21:51;;;;;;;1.92;0.70;;;;;;;;;;4994663;28;20409;-76
2021/03/22 09:24:44;;;;;;;3.05;0.90;;;;;;;;;;4994710;28;20033;-76
2021/03/22 09:27:13;;;;;;;2.50;1.15;;;;;;;;;;4994230;28;20101;-76
2021/03/22 09:29:41;;;;;;;3.22;0.70;;;;;;;;;;4995787;28;20030;-75
2021/03/22 09:32:28;;;;;;;2.78;0.82;;;;;;;;;;4978068;28;20038;-76
2021/03/22 09:35:15;;;;;;;3.15;0.95;;;;;;;;;;4987514;28;20038;-76
2021/03/22 09:38:01;;;;;;;2.47;1.00;;;;;;;;;;4978631;28;20042;-76
2021/03/22 09:40:26;;;;;;;3.47;1.00;;;;;;;;;;4978268;28;20501;-76
2021/03/22 09:43:10;;;;;;;2.47;0.70;;;;;;;;;;4995352;28;20069;-76
2021/03/22 09:45:51;;;;;;;2.25;0.70;;;;;;;;;;4960865;28;20039;-77
2021/03/22 09:48:16;;;;;;;2.75;1.10;;;;;;;;;;4965245;28;20031;-76
2021/03/22 09:50:45;;;;;;;3.07;0.90;;;;;;;;;;4971177;28;20035;-76
2021/03/22 09:53:11;;;;;;;2.75;0.98;;;;;;;;;;4978402;28;20038;-76
2021/03/22 09:56:02;;;;;;;3.80;0.70;;;;;;;;;;4995139;28;20027;-76
2021/03/22 09:58:43;;;;;;;2.20;0.90;;;;;;;;;;4986173;28;20077;-76
2021/03/22 10:01:35;;;;;;;1.80;0.77;;;;;;;;;;4978058;28;20057;-76
2021/03/22 10:04:17;;;;;;;2.33;1.00;;;;;;;;;;4980149;28;20047;-76
2021/03/22 10:06:50;;;;;;;2.50;1.00;;;;;;;;;;4979920;28;20038;-76
2021/03/22 10:09:19;;;;;;;1.67;0.70;;;;;;;;;;4978077;28;20464;-75
2021/03/22 10:11:45;;;;;;;2.85;0.80;;;;;;;;;;4964563;28;20112;-76
2021/03/22 10:14:29;;;;;;;2.13;0.88;;;;;;;;;;4968219;28;20043;-76
2021/03/22 10:16:54;;;;;;;2.28;0.73;;;;;;;;;;4968609;28;20042;-76
2021/03/22 10:19:22;;;;;;;2.43;1.10;;;;;;;;;;4976115;28;20120;-76
2021/03/22 10:21:50;;;;;;;2.22;0.95;;;;;;;;;;4959455;28;20416;-75
2021/03/22 10:24:39;;;;;;;2.35;0.73;;;;;;;;;;4964756;28;20417;-75
2021/03/22 10:27:29;;;;;;;2.80;0.80;;;;;;;;;;4993154;28;20096;-75
2021/03/22 10:30:27;;;;;;;3.47;1.00;;;;;;;;;;4964958;28;20038;-75
2021/03/22 10:32:55;;;;;;;2.40;0.95;;;;;;;;;;4944918;28;20480;-75
2021/03/22 10:35:21;;;;;;;2.15;0.77;;;;;;;;;;4974694;28;20555;-76
2021/03/22 10:37:48;;;;;;;1.53;0.77;;;;;;;;;;4973754;28;20122;-75
2021/03/22 10:40:35;;;;;;;2.03;0.75;;;;;;;;;;4973058;28;20125;-75
2021/03/22 10:43:01;;;;;;;2.03;0.77;;;;;;;;;;4973704;28;20039;-75
2021/03/22 10:45:36;;;;;;;2.08;0.90;;;;;;;;;;4975716;28;20062;-75
2021/03/22 10:48:18;;;;;;;3.58;0.80;;;;;;;;;;4993025;28;20038;-75
2021/03/22 10:50:44;;;;;;;2.72;0.80;;;;;;;;;;4992959;28;20046;-75
2021/03/22 10:53:11;;;;;;;2.77;0.90;;;;;;;;;;4992834;28;20034;-75
2021/03/22 10:55:39;;;;;;;2.88;0.90;;;;;;;;;;4976832;28;20030;-75
2021/03/22 10:58:06;;;;;;;3.65;0.88;;;;;;;;;;4992527;28;20106;-75
2021/03/22 11:00:41;;;;;;;2.28;0.88;;;;;;;;;;4976827;28;20033;-75
2021/03/22 11:03:07;;;;;;;3.25;1.10;;;;;;;;;;4986063;28;20070;-75
2021/03/22 11:05:38;;;;;;;2.15;0.77;;;;;;;;;;4956852;28;20034;-75
2021/03/22 11:08:19;;;;;;;3.38;0.98;;;;;;;;;;4976929;28;20045;-76
2021/03/22 11:10:44;;;;;;;3.17;0.70;;;;;;;;;;4977452;28;20041;-76
2021/03/22 11:13:10;;;;;;;3.67;1.00;;;;;;;;;;4973715;28;20061;-76
2021/03/22 11:15:37;;;;;;;4.07;1.00;;;;;;;;;;4957140;28;20126;-76
2021/03/22 11:18:04;;;;;;;2.47;0.98;;;;;;;;;;4957122;28;20118;-76
2021/03/22 11:20:29;;;;;;;2.42;1.10;;;;;;;;;;4957203;28;20030;-76
2021/03/22 11:23:33;;;;;;;1.37;0.63;;;;;;;;;;4959767;28;20057;-76
2021/03/22 11:26:18;;;;;;;2.95;0.98;;;;;;;;;;4992749;28;20066;-76
2021/03/22 11:28:44;;;;;;;2.17;0.80;;;;;;;;;;4971503;28;20037;-76
2021/03/22 11:31:26;;;;;;;2.93;0.90;;;;;;;;;;4973950;28;20026;-76
2021/03/22 11:34:32;;;;;;;1.60;0.75;;;;;;;;;;4976917;28;20430;-76
2021/03/22 11:37:14;;;;;;;1.60;0.70;;;;;;;;;;4935884;29;20517;-77
2021/03/22 11:39:39;;;;;;;3.20;0.85;;;;;;;;;;4938338;29;20039;-76
2021/03/22 11:42:15;;;;;;;3.27;1.07;;;;;;;;;;4974787;28;20038;-75
2021/03/22 11:44:41;;;;;;;1.98;0.82;;;;;;;;;;4977700;28;20109;-75
2021/03/22 11:47:21;;;;;;;2.00;1.20;;;;;;;;;;4992690;28;20446;-75
2021/03/22 11:49:47;;;;;;;2.72;0.90;;;;;;;;;;4993522;28;20033;-75
2021/03/22 11:52:17;;;;;;;3.75;1.20;;;;;;;;;;4958460;28;20042;-75
2021/03/22 11:55:18;;;;;;;2.72;0.93;;;;;;;;;;4983450;28;20030;-75
2021/03/22 11:57:50;;;;;;;2.75;0.77;;;;;;;;;;4939337;28;20406;-75
2021/03/22 12:00:19;;;;;;;4.18;0.98;;;;;;;;;;4969643;28;20027;-75
2021/03/22 12:02:51;;;;;;;3.35;1.00;;;;;;;;;;4990989;28;20046;-75
2021/03/22 12:05:27;;;;;;;2.97;1.00;;;;;;;;;;5017683;23;20392;-77
2021/03/22 12:07:53;;;;;;;3.40;1.00;;;;;;;;;;5053726;28;20395;-77
2021/03/22 12:10:27;;;;;;;1.95;0.93;;;;;;;;;;5017455;28;20053;-77
2021/03/22 12:12:57;;;;;;;2.33;0.70;;;;;;;;;;5027012;28;20033;-77
2021/03/22 12:15:23;;;;;;;2.72;0.88;;;;;;;;;;5012235;28;20030;-78
2021/03/22 12:17:54;;;;;;;2.43;1.00;;;;;;;;;;5016135;28;20104;-77
2021/03/22 12:20:30;;;;;;;2.25;0.73;;;;;;;;;;5016004;28;20034;-77
2021/03/22 12:22:56;;;;;;;3.80;0.90;;;;;;;;;;4981416;28;20037;-77
2021/03/22 12:25:24;;;;;;;4.27;1.13;;;;;;;;;;5013693;28;20064;-78
2021/03/22 12:27:52;;;;;;;1.70;0.80;;;;;;;;;;4996772;28;20032;-78
2021/03/22 12:30:18;;;;;;;3.05;0.90;;;;;;;;;;5017584;28;20044;-77
2021/03/22 12:32:44;;;;;;;3.65;1.15;;;;;;;;;;5006188;28;20029;-77
2021/03/22 12:35:22;;;;;;;3.43;1.00;;;;;;;;;;5033991;28;20044;-78
2021/03/22 12:37:47;;;;;;;4.28;1.10;;;;;;;;;;5031689;28;20119;-77
2021/03/22 12:40:13;;;;;;;3.13;1.00;;;;;;;;;;4999131;28;20141;-77
2021/03/22 12:42:39;;;;;;;4.03;0.93;;;;;;;;;;5015695;28;20038;-77
2021/03/22 12:45:06;;;;;;;2.47;0.70;;;;;;;;;;5032588;28;20040;-77
2021/03/22 12:47:36;;;;;;;2.58;0.82;;;;;;;;;;5030912;28;20387;-77
2021/03/22 12:50:07;;;;;;;3.35;0.90;;;;;;;;;;5004179;28;20083;-77
2021/03/22 12:52:32;;;;;;;2.53;0.80;;;;;;;;;;5024215;28;20042;-77
2021/03/22 12:54:58;;;;;;;3.47;0.90;;;;;;;;;;5000646;28;20061;-77
2021/03/22 12:57:25;;;;;;;2.83;0.90;;;;;;;;;;5019445;28;20060;-77
2021/03/22 12:59:50;;;;;;;3.38;0.82;;;;;;;;;;5036941;28;20033;-78
2021/03/22 13:02:22;;;;;;;2.40;0.93;;;;;;;;;;5020291;28;20103;-78
2021/03/22 13:04:47;;;;;;;3.42;0.93;;;;;;;;;;5019352;28;20033;-78
2021/03/22 13:07:13;;;;;;;1.73;0.90;;;;;;;;;;5019257;28;20038;-78
2021/03/22 13:09:39;;;;;;;2.73;1.00;;;;;;;;;;5011410;28;20038;-77
2021/03/22 13:12:06;;;;;;;2.80;0.90;;;;;;;;;;5007668;28;20040;-78
2021/03/22 13:14:32;;;;;;;3.83;0.77;;;;;;;;;;5036462;28;20041;-78
2021/03/22 13:16:57;;;;;;;4.10;0.93;;;;;;;;;;5015422;28;20057;-78
2021/03/22 13:19:22;;;;;;;2.47;0.80;;;;;;;;;;5017580;28;20064;-78
2021/03/22 13:21:48;;;;;;;2.67;1.00;;;;;;;;;;5020831;28;20399;-77
2021/03/22 13:24:18;;;;;;;2.47;0.90;;;;;;;;;;5020660;28;20084;-77
2021/03/22 13:26:44;;;;;;;2.47;0.90;;;;;;;;;;5036632;28;20085;-78
2021/03/22 13:29:09;;;;;;;4.50;1.10;;;;;;;;;;5018881;28;20077;-77
2021/03/22 13:31:36;;;;;;;2.90;1.03;;;;;;;;;;5018208;28;20048;-78
2021/03/22 13:34:01;;;;;;;;;;;;;;;;;;5005614;28;20112;-79
2021/03/22 13:36:26;;;;;;;3.97;0.97;;;;;;;;;;5033346;28;20354;-79
2021/03/22 13:38:52;;;;;;;3.87;1.10;;;;;;;;;;5016068;28;20817;-79
2021/03/22 13:41:30;;;;;;;3.97;1.00;;;;;;;;;;5020599;28;20064;-80
2021/03/22 13:43:56;;;;;;;2.20;0.80;;;;;;;;;;5039304;28;20040;-79
2021/03/22 13:46:22;;;;;;;2.13;0.75;;;;;;;;;;5012044;28;20033;-79
2021/03/22 13:48:47;;;;;;;3.17;1.00;;;;;;;;;;5022598;28;20038;-79
2021/03/22 13:51:17;;;;;;;2.40;0.80;;;;;;;;;;5013827;28;20125;-79
2021/03/22 13:53:43;;;;;;;2.97;0.90;;;;;;;;;;5018699;28;20389;-78
2021/03/22 13:56:08;;;;;;;3.33;1.10;;;;;;;;;;5004876;28;20119;-78
2021/03/22 13:58:34;;;;;;;2.03;0.77;;;;;;;;;;5017276;28;20029;-78
2021/03/22 14:00:59;;;;;;;3.30;0.90;;;;;;;;;;5014531;28;20037;-78
2021/03/22 14:03:24;;;;;;;2.33;0.80;;;;;;;;;;5020906;28;20053;-80
2021/03/22 14:05:51;;;;;;;3.33;0.90;;;;;;;;;;4986240;28;20045;-78
2021/03/22 14:08:17;;;;;;;2.63;1.00;;;;;;;;;;5000161;28;20038;-78
2021/03/22 14:10:42;;;;;;;2.73;1.00;;;;;;;;;;5008956;28;20097;-78
2021/03/22 14:13:08;;;;;;;4.00;0.90;;;;;;;;;;5019051;28;20039;-78
2021/03/22 14:15:35;;;;;;;2.20;1.07;;;;;;;;;;5020595;28;20382;-78
2021/03/22 14:18:01;;;;;;;2.65;0.90;;;;;;;;;;5036575;28;20073;-78
2021/03/22 14:20:26;;;;;;;2.73;0.90;;;;;;;;;;5019849;28;20080;-78
2021/03/22 14:22:52;;;;;;;3.23;1.10;;;;;;;;;;5016277;28;20045;-78
2021/03/22 14:25:18;;;;;;;2.72;1.13;;;;;;;;;;5000793;28;20068;-78
2021/03/22 14:27:44;;;;;;;4.10;1.33;;;;;;;;;;5003105;28;20029;-78
2021/03/22 14:30:13;;;;;;;3.80;0.90;;;;;;;;;;5019971;28;20272;-78
2021/03/22 14:32:39;;;;;;;2.17;0.82;;;;;;;;;;5009786;28;20049;-78
2021/03/22 14:35:04;;;;;;;2.67;0.97;;;;;;;;;;4999670;28;20405;-78
2021/03/22 14:37:29;;;;;;;4.10;0.97;;;;;;;;;;4999762;28;20095;-77
2021/03/22 14:39:55;;;;;;;2.87;0.87;;;;;;;;;;4998740;28;20045;-78
2021/03/22 14:42:20;;;;;;;4.23;1.10;;;;;;;;;;4999096;28;20118;-77
2021/03/22 14:44:45;;;;;;;3.37;1.00;;;;;;;;;;5020018;28;20524;-78
2021/03/22 14:47:11;;;;;;;2.83;0.90;;;;;;;;;;5019813;28;20033;-78
2021/03/22 14:49:36;;;;;;;3.93;1.03;;;;;;;;;;5018925;28;20554;-78
2021/03/22 14:52:02;;;;;;;2.80;1.03;;;;;;;;;;4999644;28;20496;-78
2021/03/22 14:54:27;;;;;;;4.23;0.93;;;;;;;;;;5015612;28;20052;-78
2021/03/22 14:56:52;;;;;;;4.20;1.00;;;;;;;;;;4998578;28;20081;-77
2021/03/22 14:59:18;;;;;;;3.73;0.90;;;;;;;;;;4997045;28;20095;-77
2021/03/22 15:01:43;;;;;;;2.87;0.93;;;;;;;;;;4997694;28;20492;-77
2021/03/22 15:04:09;;;;;;;3.73;1.00;;;;;;;;;;4997650;28;20076;-77
2021/03/22 15:06:35;;;;;;;2.17;0.82;;;;;;;;;;5005899;28;20038;-77
2021/03/22 15:09:00;;;;;;;4.17;0.90;;;;;;;;;;4997870;28;20185;-77
2021/03/22 15:11:26;;;;;;;2.47;0.90;;;;;;;;;;4997781;28;20033;-77
2021/03/22 15:13:51;;;;;;;3.50;0.97;;;;;;;;;;4998559;28;20033;-77